sensor_id;sensor_type;location;lat;lon;timestamp;P1;durP1;ratioP1;P2;durP2;ratioP2
17207;SDS011;8720;48.488;9.202;2023-03-01T00:01:15;23.95;;;16.20;;
17207;SDS011;8720;48.488;9.202;2023-03-01T00:03:44;22.95;;;14.93;;
17207;SDS011;8720;48.488;9.202;2023-03-01T00:06:12;22.98;;;16.13;;
17207;SDS011;8720;48.488;9.202;2023-03-01T00:08:40;24.38;;;15.65;;
17207;SDS011;8720;48.488;9.202;2023-03-01T00:11:09;24.23;;;15.68;;
17207;SDS011;8720;48.488;9.202;2023-03-01T00:13:41;25.65;;;15.85;;
17207;SDS011;8720;48.488;9.202;2023-03-01T00:16:10;25.85;;;17.80;;
17207;SDS011;8720;48.488;9.202;2023-03-01T00:18:40;21.20;;;15.93;;
17207;SDS011;8720;48.488;9.202;2023-03-01T00:21:08;23.73;;;14.95;;
17207;SDS011;8720;48.488;9.202;2023-03-01T00:23:37;21.35;;;15.95;;
17207;SDS011;8720;48.488;9.202;2023-03-01T00:26:05;22.40;;;15.85;;
17207;SDS011;8720;48.488;9.202;2023-03-01T00:28:36;23.83;;;15.90;;
17207;SDS011;8720;48.488;9.202;2023-03-01T00:31:06;22.73;;;16.00;;
17207;SDS011;8720;48.488;9.202;2023-03-01T00:33:37;23.65;;;15.75;;
17207;SDS011;8720;48.488;9.202;2023-03-01T00:36:05;23.70;;;15.48;;
17207;SDS011;8720;48.488;9.202;2023-03-01T00:38:34;25.23;;;16.85;;
17207;SDS011;8720;48.488;9.202;2023-03-01T00:41:03;20.52;;;15.60;;
17207;SDS011;8720;48.488;9.202;2023-03-01T00:43:31;26.23;;;16.65;;
17207;SDS011;8720;48.488;9.202;2023-03-01T00:46:02;21.92;;;15.88;;
17207;SDS011;8720;48.488;9.202;2023-03-01T00:48:31;26.15;;;17.88;;
17207;SDS011;8720;48.488;9.202;2023-03-01T00:51:03;21.80;;;15.57;;
17207;SDS011;8720;48.488;9.202;2023-03-01T00:53:32;23.77;;;16.38;;
17207;SDS011;8720;48.488;9.202;2023-03-01T00:56:00;26.52;;;17.42;;
17207;SDS011;8720;48.488;9.202;2023-03-01T00:58:29;26.20;;;16.25;;
17207;SDS011;8720;48.488;9.202;2023-03-01T01:00:56;27.73;;;17.50;;
17207;SDS011;8720;48.488;9.202;2023-03-01T01:03:24;21.92;;;16.20;;
17207;SDS011;8720;48.488;9.202;2023-03-01T01:05:53;23.60;;;15.73;;
17207;SDS011;8720;48.488;9.202;2023-03-01T01:08:20;22.80;;;15.85;;
17207;SDS011;8720;48.488;9.202;2023-03-01T01:10:48;26.60;;;16.08;;
17207;SDS011;8720;48.488;9.202;2023-03-01T01:13:15;27.67;;;17.15;;
17207;SDS011;8720;48.488;9.202;2023-03-01T01:15:43;25.45;;;16.98;;
17207;SDS011;8720;48.488;9.202;2023-03-01T01:18:11;21.75;;;16.55;;
17207;SDS011;8720;48.488;9.202;2023-03-01T01:20:39;23.98;;;15.50;;
17207;SDS011;8720;48.488;9.202;2023-03-01T01:23:07;20.55;;;14.38;;
17207;SDS011;8720;48.488;9.202;2023-03-01T01:25:35;23.10;;;15.70;;
17207;SDS011;8720;48.488;9.202;2023-03-01T01:28:05;24.77;;;15.32;;
17207;SDS011;8720;48.488;9.202;2023-03-01T01:30:33;23.08;;;16.20;;
17207;SDS011;8720;48.488;9.202;2023-03-01T01:33:00;28.02;;;16.60;;
17207;SDS011;8720;48.488;9.202;2023-03-01T01:35:28;25.88;;;16.45;;
17207;SDS011;8720;48.488;9.202;2023-03-01T01:37:55;25.15;;;16.63;;
17207;SDS011;8720;48.488;9.202;2023-03-01T01:40:24;26.52;;;16.90;;
17207;SDS011;8720;48.488;9.202;2023-03-01T01:42:54;26.00;;;17.58;;
17207;SDS011;8720;48.488;9.202;2023-03-01T01:45:27;25.35;;;15.70;;
17207;SDS011;8720;48.488;9.202;2023-03-01T01:48:00;23.65;;;15.75;;
17207;SDS011;8720;48.488;9.202;2023-03-01T01:50:36;22.70;;;16.25;;
17207;SDS011;8720;48.488;9.202;2023-03-01T01:53:10;27.40;;;17.55;;
17207;SDS011;8720;48.488;9.202;2023-03-01T01:55:44;23.63;;;16.42;;
17207;SDS011;8720;48.488;9.202;2023-03-01T01:58:18;25.13;;;16.58;;
17207;SDS011;8720;48.488;9.202;2023-03-01T02:00:48;24.02;;;16.13;;
17207;SDS011;8720;48.488;9.202;2023-03-01T02:03:17;22.77;;;14.57;;
17207;SDS011;8720;48.488;9.202;2023-03-01T02:05:51;26.63;;;17.75;;
17207;SDS011;8720;48.488;9.202;2023-03-01T02:08:27;23.77;;;16.83;;
17207;SDS011;8720;48.488;9.202;2023-03-01T02:10:59;23.30;;;15.80;;
17207;SDS011;8720;48.488;9.202;2023-03-01T02:13:29;24.58;;;16.50;;
17207;SDS011;8720;48.488;9.202;2023-03-01T02:15:58;22.92;;;15.52;;
17207;SDS011;8720;48.488;9.202;2023-03-01T02:18:29;21.13;;;14.73;;
17207;SDS011;8720;48.488;9.202;2023-03-01T02:21:06;21.00;;;15.00;;
17207;SDS011;8720;48.488;9.202;2023-03-01T02:23:55;21.80;;;15.23;;
17207;SDS011;8720;48.488;9.202;2023-03-01T02:26:27;26.23;;;16.63;;
17207;SDS011;8720;48.488;9.202;2023-03-01T02:29:04;23.80;;;15.68;;
17207;SDS011;8720;48.488;9.202;2023-03-01T02:31:32;21.30;;;16.40;;
17207;SDS011;8720;48.488;9.202;2023-03-01T02:34:12;26.15;;;15.93;;
17207;SDS011;8720;48.488;9.202;2023-03-01T02:36:43;26.02;;;16.40;;
17207;SDS011;8720;48.488;9.202;2023-03-01T02:39:15;21.88;;;15.55;;
17207;SDS011;8720;48.488;9.202;2023-03-01T02:41:51;22.05;;;15.32;;
17207;SDS011;8720;48.488;9.202;2023-03-01T02:44:23;29.70;;;17.02;;
17207;SDS011;8720;48.488;9.202;2023-03-01T02:46:52;21.63;;;14.63;;
17207;SDS011;8720;48.488;9.202;2023-03-01T02:49:24;23.25;;;15.80;;
17207;SDS011;8720;48.488;9.202;2023-03-01T02:54:56;23.23;;;15.43;;
17207;SDS011;8720;48.488;9.202;2023-03-01T02:57:29;20.25;;;14.52;;
17207;SDS011;8720;48.488;9.202;2023-03-01T03:00:02;25.17;;;16.60;;
17207;SDS011;8720;48.488;9.202;2023-03-01T03:05:04;24.08;;;16.23;;
17207;SDS011;8720;48.488;9.202;2023-03-01T03:07:37;21.25;;;15.48;;
17207;SDS011;8720;48.488;9.202;2023-03-01T03:10:08;21.10;;;14.90;;
17207;SDS011;8720;48.488;9.202;2023-03-01T03:12:40;21.25;;;14.52;;
17207;SDS011;8720;48.488;9.202;2023-03-01T03:15:10;25.35;;;16.30;;
17207;SDS011;8720;48.488;9.202;2023-03-01T03:17:38;22.05;;;14.60;;
17207;SDS011;8720;48.488;9.202;2023-03-01T03:20:08;22.52;;;16.20;;
17207;SDS011;8720;48.488;9.202;2023-03-01T03:22:44;24.88;;;16.35;;
17207;SDS011;8720;48.488;9.202;2023-03-01T03:25:12;23.77;;;16.08;;
17207;SDS011;8720;48.488;9.202;2023-03-01T03:27:41;26.50;;;15.52;;
17207;SDS011;8720;48.488;9.202;2023-03-01T03:30:12;21.27;;;15.32;;
17207;SDS011;8720;48.488;9.202;2023-03-01T03:32:44;21.65;;;15.43;;
17207;SDS011;8720;48.488;9.202;2023-03-01T03:35:18;26.10;;;14.68;;
17207;SDS011;8720;48.488;9.202;2023-03-01T03:37:47;22.85;;;16.20;;
17207;SDS011;8720;48.488;9.202;2023-03-01T03:40:32;20.67;;;14.82;;
17207;SDS011;8720;48.488;9.202;2023-03-01T03:43:01;24.60;;;15.80;;
17207;SDS011;8720;48.488;9.202;2023-03-01T03:45:31;24.08;;;14.60;;
17207;SDS011;8720;48.488;9.202;2023-03-01T03:48:00;23.80;;;16.02;;
17207;SDS011;8720;48.488;9.202;2023-03-01T03:50:29;24.00;;;15.80;;
17207;SDS011;8720;48.488;9.202;2023-03-01T03:52:57;22.70;;;15.40;;
17207;SDS011;8720;48.488;9.202;2023-03-01T03:55:26;24.30;;;15.15;;
17207;SDS011;8720;48.488;9.202;2023-03-01T03:57:56;37.85;;;24.67;;
17207;SDS011;8720;48.488;9.202;2023-03-01T04:00:27;21.70;;;15.50;;
17207;SDS011;8720;48.488;9.202;2023-03-01T04:02:56;19.95;;;15.40;;
17207;SDS011;8720;48.488;9.202;2023-03-01T04:05:23;21.70;;;15.50;;
17207;SDS011;8720;48.488;9.202;2023-03-01T04:07:51;27.42;;;16.42;;
17207;SDS011;8720;48.488;9.202;2023-03-01T04:10:33;27.05;;;15.32;;
17207;SDS011;8720;48.488;9.202;2023-03-01T04:13:02;22.38;;;16.17;;
17207;SDS011;8720;48.488;9.202;2023-03-01T04:15:31;23.48;;;16.27;;
17207;SDS011;8720;48.488;9.202;2023-03-01T04:18:01;22.00;;;15.35;;
17207;SDS011;8720;48.488;9.202;2023-03-01T04:20:30;24.02;;;15.48;;
17207;SDS011;8720;48.488;9.202;2023-03-01T04:23:02;21.15;;;16.00;;
17207;SDS011;8720;48.488;9.202;2023-03-01T04:25:38;22.83;;;16.08;;
17207;SDS011;8720;48.488;9.202;2023-03-01T04:28:07;22.63;;;15.45;;
17207;SDS011;8720;48.488;9.202;2023-03-01T04:30:36;22.77;;;15.70;;
17207;SDS011;8720;48.488;9.202;2023-03-01T04:33:06;26.35;;;15.77;;
17207;SDS011;8720;48.488;9.202;2023-03-01T04:35:36;26.02;;;15.63;;
17207;SDS011;8720;48.488;9.202;2023-03-01T04:38:05;22.92;;;14.75;;
17207;SDS011;8720;48.488;9.202;2023-03-01T04:40:33;19.88;;;14.82;;
17207;SDS011;8720;48.488;9.202;2023-03-01T04:43:01;23.25;;;15.13;;
17207;SDS011;8720;48.488;9.202;2023-03-01T04:45:31;24.40;;;16.58;;
17207;SDS011;8720;48.488;9.202;2023-03-01T04:48:00;23.13;;;16.80;;
17207;SDS011;8720;48.488;9.202;2023-03-01T04:50:30;20.05;;;15.98;;
17207;SDS011;8720;48.488;9.202;2023-03-01T04:52:58;23.42;;;15.80;;
17207;SDS011;8720;48.488;9.202;2023-03-01T04:55:25;24.23;;;17.23;;
17207;SDS011;8720;48.488;9.202;2023-03-01T04:57:53;22.42;;;16.40;;
17207;SDS011;8720;48.488;9.202;2023-03-01T05:00:22;21.80;;;14.77;;
17207;SDS011;8720;48.488;9.202;2023-03-01T05:02:50;21.67;;;15.33;;
17207;SDS011;8720;48.488;9.202;2023-03-01T05:05:20;21.77;;;15.55;;
17207;SDS011;8720;48.488;9.202;2023-03-01T05:07:56;20.33;;;15.53;;
17207;SDS011;8720;48.488;9.202;2023-03-01T05:10:28;24.02;;;16.50;;
17207;SDS011;8720;48.488;9.202;2023-03-01T05:13:00;24.67;;;15.90;;
17207;SDS011;8720;48.488;9.202;2023-03-01T05:15:30;23.17;;;16.30;;
17207;SDS011;8720;48.488;9.202;2023-03-01T05:17:59;23.50;;;16.57;;
17207;SDS011;8720;48.488;9.202;2023-03-01T05:20:26;24.63;;;17.27;;
17207;SDS011;8720;48.488;9.202;2023-03-01T05:22:58;27.90;;;16.63;;
17207;SDS011;8720;48.488;9.202;2023-03-01T05:25:30;26.70;;;15.50;;
17207;SDS011;8720;48.488;9.202;2023-03-01T05:27:59;29.73;;;16.93;;
17207;SDS011;8720;48.488;9.202;2023-03-01T05:30:29;20.73;;;16.58;;
17207;SDS011;8720;48.488;9.202;2023-03-01T05:32:57;23.80;;;16.23;;
17207;SDS011;8720;48.488;9.202;2023-03-01T05:35:25;23.90;;;16.48;;
17207;SDS011;8720;48.488;9.202;2023-03-01T05:37:54;22.25;;;16.42;;
17207;SDS011;8720;48.488;9.202;2023-03-01T05:40:23;21.85;;;15.90;;
17207;SDS011;8720;48.488;9.202;2023-03-01T05:42:52;25.75;;;17.42;;
17207;SDS011;8720;48.488;9.202;2023-03-01T05:45:21;23.63;;;16.07;;
17207;SDS011;8720;48.488;9.202;2023-03-01T05:47:51;25.55;;;16.63;;
17207;SDS011;8720;48.488;9.202;2023-03-01T05:50:20;23.83;;;17.75;;
17207;SDS011;8720;48.488;9.202;2023-03-01T05:52:51;24.10;;;16.45;;
17207;SDS011;8720;48.488;9.202;2023-03-01T05:55:25;29.88;;;18.17;;
17207;SDS011;8720;48.488;9.202;2023-03-01T05:57:52;27.27;;;16.87;;
17207;SDS011;8720;48.488;9.202;2023-03-01T06:00:20;27.80;;;16.20;;
17207;SDS011;8720;48.488;9.202;2023-03-01T06:02:48;22.15;;;16.83;;
17207;SDS011;8720;48.488;9.202;2023-03-01T06:05:17;22.23;;;16.17;;
17207;SDS011;8720;48.488;9.202;2023-03-01T06:07:44;24.52;;;16.08;;
17207;SDS011;8720;48.488;9.202;2023-03-01T06:10:12;31.95;;;17.85;;
17207;SDS011;8720;48.488;9.202;2023-03-01T06:12:42;25.35;;;16.50;;
17207;SDS011;8720;48.488;9.202;2023-03-01T06:15:11;26.63;;;17.90;;
17207;SDS011;8720;48.488;9.202;2023-03-01T06:17:41;23.80;;;17.03;;
17207;SDS011;8720;48.488;9.202;2023-03-01T06:20:11;25.00;;;17.17;;
17207;SDS011;8720;48.488;9.202;2023-03-01T06:22:41;24.38;;;17.85;;
17207;SDS011;8720;48.488;9.202;2023-03-01T06:25:09;22.50;;;16.73;;
17207;SDS011;8720;48.488;9.202;2023-03-01T06:27:42;24.77;;;16.53;;
17207;SDS011;8720;48.488;9.202;2023-03-01T06:30:10;28.67;;;16.73;;
17207;SDS011;8720;48.488;9.202;2023-03-01T06:32:41;28.57;;;18.87;;
17207;SDS011;8720;48.488;9.202;2023-03-01T06:35:08;25.20;;;16.60;;
17207;SDS011;8720;48.488;9.202;2023-03-01T06:37:38;28.55;;;18.58;;
17207;SDS011;8720;48.488;9.202;2023-03-01T06:40:06;26.20;;;17.77;;
17207;SDS011;8720;48.488;9.202;2023-03-01T06:42:37;30.03;;;18.60;;
17207;SDS011;8720;48.488;9.202;2023-03-01T06:45:09;25.80;;;16.90;;
17207;SDS011;8720;48.488;9.202;2023-03-01T06:47:37;28.80;;;19.13;;
17207;SDS011;8720;48.488;9.202;2023-03-01T06:50:04;27.95;;;17.52;;
17207;SDS011;8720;48.488;9.202;2023-03-01T06:52:32;26.37;;;18.60;;
17207;SDS011;8720;48.488;9.202;2023-03-01T06:55:00;26.93;;;18.00;;
17207;SDS011;8720;48.488;9.202;2023-03-01T06:57:28;27.10;;;17.57;;
17207;SDS011;8720;48.488;9.202;2023-03-01T06:59:55;27.03;;;17.43;;
17207;SDS011;8720;48.488;9.202;2023-03-01T07:02:24;26.40;;;17.40;;
17207;SDS011;8720;48.488;9.202;2023-03-01T07:04:51;29.80;;;17.30;;
17207;SDS011;8720;48.488;9.202;2023-03-01T07:07:19;24.48;;;17.05;;
17207;SDS011;8720;48.488;9.202;2023-03-01T07:09:46;27.73;;;18.23;;
17207;SDS011;8720;48.488;9.202;2023-03-01T07:12:15;29.13;;;19.40;;
17207;SDS011;8720;48.488;9.202;2023-03-01T07:14:43;26.93;;;17.90;;
17207;SDS011;8720;48.488;9.202;2023-03-01T07:17:11;29.17;;;20.13;;
17207;SDS011;8720;48.488;9.202;2023-03-01T07:19:39;30.30;;;18.27;;
17207;SDS011;8720;48.488;9.202;2023-03-01T07:22:07;27.93;;;18.50;;
17207;SDS011;8720;48.488;9.202;2023-03-01T07:24:34;25.60;;;17.97;;
17207;SDS011;8720;48.488;9.202;2023-03-01T07:27:02;28.77;;;19.30;;
17207;SDS011;8720;48.488;9.202;2023-03-01T07:29:29;25.90;;;17.97;;
17207;SDS011;8720;48.488;9.202;2023-03-01T07:31:57;31.73;;;19.13;;
17207;SDS011;8720;48.488;9.202;2023-03-01T07:34:24;27.70;;;19.27;;
17207;SDS011;8720;48.488;9.202;2023-03-01T07:36:53;25.60;;;17.10;;
17207;SDS011;8720;48.488;9.202;2023-03-01T07:39:20;26.23;;;18.50;;
17207;SDS011;8720;48.488;9.202;2023-03-01T07:41:48;29.10;;;18.50;;
17207;SDS011;8720;48.488;9.202;2023-03-01T07:44:20;30.93;;;18.47;;
17207;SDS011;8720;48.488;9.202;2023-03-01T07:46:47;26.30;;;19.20;;
17207;SDS011;8720;48.488;9.202;2023-03-01T07:49:15;24.80;;;17.30;;
17207;SDS011;8720;48.488;9.202;2023-03-01T07:51:42;24.90;;;18.83;;
17207;SDS011;8720;48.488;9.202;2023-03-01T07:54:11;22.73;;;17.60;;
17207;SDS011;8720;48.488;9.202;2023-03-01T07:56:38;24.93;;;17.87;;
17207;SDS011;8720;48.488;9.202;2023-03-01T07:59:06;25.53;;;18.63;;
17207;SDS011;8720;48.488;9.202;2023-03-01T08:01:33;27.37;;;17.87;;
17207;SDS011;8720;48.488;9.202;2023-03-01T08:04:01;28.40;;;18.30;;
17207;SDS011;8720;48.488;9.202;2023-03-01T08:06:33;28.37;;;18.40;;
17207;SDS011;8720;48.488;9.202;2023-03-01T08:09:01;25.50;;;18.50;;
17207;SDS011;8720;48.488;9.202;2023-03-01T08:11:30;24.00;;;18.47;;
17207;SDS011;8720;48.488;9.202;2023-03-01T08:13:57;23.60;;;18.60;;
17207;SDS011;8720;48.488;9.202;2023-03-01T08:16:25;24.40;;;18.27;;
17207;SDS011;8720;48.488;9.202;2023-03-01T08:18:52;29.53;;;18.90;;
17207;SDS011;8720;48.488;9.202;2023-03-01T08:21:21;33.03;;;18.10;;
17207;SDS011;8720;48.488;9.202;2023-03-01T08:23:49;29.30;;;19.33;;
17207;SDS011;8720;48.488;9.202;2023-03-01T08:26:17;28.00;;;19.00;;
17207;SDS011;8720;48.488;9.202;2023-03-01T08:28:48;29.90;;;19.93;;
17207;SDS011;8720;48.488;9.202;2023-03-01T08:31:17;26.40;;;18.60;;
17207;SDS011;8720;48.488;9.202;2023-03-01T08:33:49;26.43;;;17.80;;
17207;SDS011;8720;48.488;9.202;2023-03-01T08:36:21;28.00;;;19.07;;
17207;SDS011;8720;48.488;9.202;2023-03-01T08:38:49;24.23;;;17.87;;
17207;SDS011;8720;48.488;9.202;2023-03-01T08:41:17;24.70;;;18.17;;
17207;SDS011;8720;48.488;9.202;2023-03-01T08:43:44;27.20;;;19.33;;
17207;SDS011;8720;48.488;9.202;2023-03-01T08:46:13;26.33;;;19.13;;
17207;SDS011;8720;48.488;9.202;2023-03-01T08:48:40;29.47;;;19.77;;
17207;SDS011;8720;48.488;9.202;2023-03-01T08:51:09;21.60;;;17.13;;
17207;SDS011;8720;48.488;9.202;2023-03-01T08:53:38;26.70;;;18.83;;
17207;SDS011;8720;48.488;9.202;2023-03-01T08:56:06;27.47;;;19.23;;
17207;SDS011;8720;48.488;9.202;2023-03-01T08:58:34;25.77;;;19.37;;
17207;SDS011;8720;48.488;9.202;2023-03-01T09:01:06;25.17;;;19.10;;
17207;SDS011;8720;48.488;9.202;2023-03-01T09:03:35;26.27;;;19.63;;
17207;SDS011;8720;48.488;9.202;2023-03-01T09:06:03;24.00;;;19.10;;
17207;SDS011;8720;48.488;9.202;2023-03-01T09:08:34;25.37;;;18.67;;
17207;SDS011;8720;48.488;9.202;2023-03-01T09:11:02;27.37;;;19.87;;
17207;SDS011;8720;48.488;9.202;2023-03-01T09:13:30;24.00;;;18.03;;
17207;SDS011;8720;48.488;9.202;2023-03-01T09:15:58;24.00;;;18.40;;
17207;SDS011;8720;48.488;9.202;2023-03-01T09:18:28;27.30;;;18.90;;
17207;SDS011;8720;48.488;9.202;2023-03-01T09:21:01;26.50;;;18.60;;
17207;SDS011;8720;48.488;9.202;2023-03-01T09:23:32;24.37;;;19.70;;
17207;SDS011;8720;48.488;9.202;2023-03-01T09:26:01;26.30;;;19.67;;
17207;SDS011;8720;48.488;9.202;2023-03-01T09:28:28;25.60;;;17.97;;
17207;SDS011;8720;48.488;9.202;2023-03-01T09:30:57;26.50;;;18.60;;
17207;SDS011;8720;48.488;9.202;2023-03-01T09:33:25;25.23;;;18.70;;
17207;SDS011;8720;48.488;9.202;2023-03-01T09:35:55;24.03;;;18.27;;
17207;SDS011;8720;48.488;9.202;2023-03-01T09:38:25;29.00;;;18.67;;
17207;SDS011;8720;48.488;9.202;2023-03-01T09:40:53;25.67;;;19.27;;
17207;SDS011;8720;48.488;9.202;2023-03-01T09:43:21;26.40;;;18.20;;
17207;SDS011;8720;48.488;9.202;2023-03-01T09:45:58;22.20;;;17.93;;
17207;SDS011;8720;48.488;9.202;2023-03-01T09:48:32;22.90;;;18.90;;
17207;SDS011;8720;48.488;9.202;2023-03-01T09:51:08;31.87;;;20.30;;
17207;SDS011;8720;48.488;9.202;2023-03-01T09:53:46;29.70;;;20.90;;
17207;SDS011;8720;48.488;9.202;2023-03-01T09:56:15;28.50;;;19.07;;
17207;SDS011;8720;48.488;9.202;2023-03-01T09:58:49;23.40;;;18.10;;
17207;SDS011;8720;48.488;9.202;2023-03-01T10:01:28;26.03;;;18.00;;
17207;SDS011;8720;48.488;9.202;2023-03-01T10:04:04;23.90;;;19.00;;
17207;SDS011;8720;48.488;9.202;2023-03-01T10:07:01;23.10;;;18.03;;
17207;SDS011;8720;48.488;9.202;2023-03-01T10:09:49;26.90;;;17.97;;
17207;SDS011;8720;48.488;9.202;2023-03-01T10:12:17;25.10;;;18.40;;
17207;SDS011;8720;48.488;9.202;2023-03-01T10:14:51;25.83;;;18.47;;
17207;SDS011;8720;48.488;9.202;2023-03-01T10:17:29;25.07;;;18.53;;
17207;SDS011;8720;48.488;9.202;2023-03-01T10:20:17;22.00;;;16.37;;
17207;SDS011;8720;48.488;9.202;2023-03-01T10:22:48;22.40;;;17.50;;
17207;SDS011;8720;48.488;9.202;2023-03-01T10:25:23;22.30;;;17.17;;
17207;SDS011;8720;48.488;9.202;2023-03-01T10:28:16;26.60;;;17.07;;
17207;SDS011;8720;48.488;9.202;2023-03-01T10:30:50;21.57;;;16.77;;
17207;SDS011;8720;48.488;9.202;2023-03-01T10:33:20;22.10;;;16.33;;
17207;SDS011;8720;48.488;9.202;2023-03-01T10:35:53;21.03;;;15.73;;
17207;SDS011;8720;48.488;9.202;2023-03-01T10:38:20;19.07;;;14.00;;
17207;SDS011;8720;48.488;9.202;2023-03-01T10:40:53;21.40;;;16.47;;
17207;SDS011;8720;48.488;9.202;2023-03-01T10:43:23;21.27;;;16.23;;
17207;SDS011;8720;48.488;9.202;2023-03-01T10:45:53;20.70;;;15.53;;
17207;SDS011;8720;48.488;9.202;2023-03-01T10:48:21;24.40;;;16.93;;
17207;SDS011;8720;48.488;9.202;2023-03-01T10:51:04;21.43;;;15.10;;
17207;SDS011;8720;48.488;9.202;2023-03-01T10:53:34;19.60;;;15.20;;
17207;SDS011;8720;48.488;9.202;2023-03-01T10:56:09;21.20;;;15.67;;
17207;SDS011;8720;48.488;9.202;2023-03-01T10:58:40;18.10;;;14.50;;
17207;SDS011;8720;48.488;9.202;2023-03-01T11:01:25;18.10;;;14.57;;
17207;SDS011;8720;48.488;9.202;2023-03-01T11:04:07;19.63;;;15.43;;
17207;SDS011;8720;48.488;9.202;2023-03-01T11:06:40;20.57;;;16.03;;
17207;SDS011;8720;48.488;9.202;2023-03-01T11:09:14;21.03;;;14.90;;
17207;SDS011;8720;48.488;9.202;2023-03-01T11:11:46;18.30;;;15.33;;
17207;SDS011;8720;48.488;9.202;2023-03-01T11:14:20;20.73;;;14.60;;
17207;SDS011;8720;48.488;9.202;2023-03-01T11:16:58;18.90;;;16.20;;
17207;SDS011;8720;48.488;9.202;2023-03-01T11:19:28;19.70;;;14.83;;
17207;SDS011;8720;48.488;9.202;2023-03-01T11:21:58;16.50;;;14.17;;
17207;SDS011;8720;48.488;9.202;2023-03-01T11:24:33;18.57;;;14.70;;
17207;SDS011;8720;48.488;9.202;2023-03-01T11:31:14;18.60;;;14.60;;
17207;SDS011;8720;48.488;9.202;2023-03-01T11:34:11;20.47;;;15.20;;
17207;SDS011;8720;48.488;9.202;2023-03-01T11:36:46;19.00;;;15.40;;
17207;SDS011;8720;48.488;9.202;2023-03-01T11:39:24;21.17;;;14.63;;
17207;SDS011;8720;48.488;9.202;2023-03-01T11:42:03;17.90;;;14.07;;
17207;SDS011;8720;48.488;9.202;2023-03-01T11:44:43;17.53;;;14.03;;
17207;SDS011;8720;48.488;9.202;2023-03-01T11:50:27;17.87;;;14.37;;
17207;SDS011;8720;48.488;9.202;2023-03-01T11:53:05;19.83;;;15.37;;
17207;SDS011;8720;48.488;9.202;2023-03-01T11:56:05;17.53;;;12.37;;
17207;SDS011;8720;48.488;9.202;2023-03-01T11:58:59;18.07;;;13.63;;
17207;SDS011;8720;48.488;9.202;2023-03-01T12:02:19;18.73;;;14.17;;
17207;SDS011;8720;48.488;9.202;2023-03-01T12:05:16;18.40;;;14.80;;
17207;SDS011;8720;48.488;9.202;2023-03-01T12:08:08;17.87;;;14.17;;
17207;SDS011;8720;48.488;9.202;2023-03-01T12:10:43;19.23;;;15.40;;
17207;SDS011;8720;48.488;9.202;2023-03-01T12:13:36;18.93;;;14.83;;
17207;SDS011;8720;48.488;9.202;2023-03-01T12:16:35;19.43;;;14.30;;
17207;SDS011;8720;48.488;9.202;2023-03-01T12:22:38;21.23;;;15.43;;
17207;SDS011;8720;48.488;9.202;2023-03-01T12:25:26;18.50;;;14.47;;
17207;SDS011;8720;48.488;9.202;2023-03-01T12:31:29;18.87;;;13.80;;
17207;SDS011;8720;48.488;9.202;2023-03-01T12:34:37;16.53;;;13.50;;
17207;SDS011;8720;48.488;9.202;2023-03-01T12:37:42;18.40;;;13.50;;
17207;SDS011;8720;48.488;9.202;2023-03-01T12:40:33;19.30;;;15.03;;
17207;SDS011;8720;48.488;9.202;2023-03-01T12:43:32;23.67;;;15.97;;
17207;SDS011;8720;48.488;9.202;2023-03-01T12:46:21;15.63;;;13.00;;
17207;SDS011;8720;48.488;9.202;2023-03-01T12:49:05;20.70;;;14.17;;
17207;SDS011;8720;48.488;9.202;2023-03-01T12:51:40;16.60;;;12.33;;
17207;SDS011;8720;48.488;9.202;2023-03-01T12:54:19;16.37;;;13.47;;
17207;SDS011;8720;48.488;9.202;2023-03-01T12:56:54;19.50;;;13.63;;
17207;SDS011;8720;48.488;9.202;2023-03-01T12:59:28;15.50;;;12.23;;
17207;SDS011;8720;48.488;9.202;2023-03-01T13:02:09;14.93;;;12.23;;
17207;SDS011;8720;48.488;9.202;2023-03-01T13:04:52;16.40;;;13.80;;
17207;SDS011;8720;48.488;9.202;2023-03-01T13:07:35;16.07;;;12.80;;
17207;SDS011;8720;48.488;9.202;2023-03-01T13:10:15;18.60;;;13.80;;
17207;SDS011;8720;48.488;9.202;2023-03-01T13:13:00;17.80;;;13.87;;
17207;SDS011;8720;48.488;9.202;2023-03-01T13:15:38;23.20;;;13.13;;
17207;SDS011;8720;48.488;9.202;2023-03-01T13:20:59;18.73;;;14.07;;
17207;SDS011;8720;48.488;9.202;2023-03-01T13:23:33;16.77;;;12.90;;
17207;SDS011;8720;48.488;9.202;2023-03-01T13:26:07;17.47;;;13.17;;
17207;SDS011;8720;48.488;9.202;2023-03-01T13:28:40;17.90;;;14.57;;
17207;SDS011;8720;48.488;9.202;2023-03-01T13:34:39;16.60;;;13.90;;
17207;SDS011;8720;48.488;9.202;2023-03-01T13:37:19;17.07;;;13.13;;
17207;SDS011;8720;48.488;9.202;2023-03-01T13:39:55;16.20;;;12.80;;
17207;SDS011;8720;48.488;9.202;2023-03-01T13:42:42;19.53;;;14.50;;
17207;SDS011;8720;48.488;9.202;2023-03-01T13:48:09;17.80;;;13.57;;
17207;SDS011;8720;48.488;9.202;2023-03-01T13:50:45;17.83;;;12.87;;
17207;SDS011;8720;48.488;9.202;2023-03-01T13:53:17;17.70;;;14.20;;
17207;SDS011;8720;48.488;9.202;2023-03-01T13:55:49;18.83;;;14.90;;
17207;SDS011;8720;48.488;9.202;2023-03-01T13:58:22;18.13;;;14.87;;
17207;SDS011;8720;48.488;9.202;2023-03-01T14:00:56;18.07;;;13.90;;
17207;SDS011;8720;48.488;9.202;2023-03-01T14:03:26;16.23;;;14.13;;
17207;SDS011;8720;48.488;9.202;2023-03-01T14:06:03;18.17;;;15.20;;
17207;SDS011;8720;48.488;9.202;2023-03-01T14:08:33;18.87;;;14.80;;
17207;SDS011;8720;48.488;9.202;2023-03-01T14:11:19;16.37;;;14.57;;
17207;SDS011;8720;48.488;9.202;2023-03-01T14:14:22;19.07;;;14.23;;
17207;SDS011;8720;48.488;9.202;2023-03-01T14:17:08;21.23;;;14.83;;
17207;SDS011;8720;48.488;9.202;2023-03-01T14:19:58;18.87;;;15.60;;
17207;SDS011;8720;48.488;9.202;2023-03-01T14:22:35;19.00;;;15.77;;
17207;SDS011;8720;48.488;9.202;2023-03-01T14:25:16;25.40;;;15.00;;
17207;SDS011;8720;48.488;9.202;2023-03-01T14:27:54;19.67;;;15.30;;
17207;SDS011;8720;48.488;9.202;2023-03-01T14:30:25;20.63;;;15.53;;
17207;SDS011;8720;48.488;9.202;2023-03-01T14:32:59;20.70;;;14.50;;
17207;SDS011;8720;48.488;9.202;2023-03-01T14:35:29;18.70;;;14.53;;
17207;SDS011;8720;48.488;9.202;2023-03-01T14:37:59;19.77;;;14.60;;
17207;SDS011;8720;48.488;9.202;2023-03-01T14:40:27;18.63;;;14.87;;
17207;SDS011;8720;48.488;9.202;2023-03-01T14:42:59;19.23;;;16.30;;
17207;SDS011;8720;48.488;9.202;2023-03-01T14:45:35;17.43;;;14.00;;
17207;SDS011;8720;48.488;9.202;2023-03-01T14:48:03;19.60;;;14.43;;
17207;SDS011;8720;48.488;9.202;2023-03-01T14:50:34;17.57;;;14.17;;
17207;SDS011;8720;48.488;9.202;2023-03-01T14:53:07;18.63;;;13.93;;
17207;SDS011;8720;48.488;9.202;2023-03-01T14:55:45;18.67;;;13.77;;
17207;SDS011;8720;48.488;9.202;2023-03-01T14:58:20;15.30;;;13.60;;
17207;SDS011;8720;48.488;9.202;2023-03-01T15:00:51;21.13;;;14.13;;
17207;SDS011;8720;48.488;9.202;2023-03-01T15:03:24;18.80;;;13.77;;
17207;SDS011;8720;48.488;9.202;2023-03-01T15:06:02;18.20;;;14.27;;
17207;SDS011;8720;48.488;9.202;2023-03-01T15:08:33;17.40;;;14.00;;
17207;SDS011;8720;48.488;9.202;2023-03-01T15:11:04;17.60;;;13.93;;
17207;SDS011;8720;48.488;9.202;2023-03-01T15:13:48;15.97;;;13.93;;
17207;SDS011;8720;48.488;9.202;2023-03-01T15:16:18;18.60;;;13.67;;
17207;SDS011;8720;48.488;9.202;2023-03-01T15:18:50;18.27;;;14.87;;
17207;SDS011;8720;48.488;9.202;2023-03-01T15:21:22;16.60;;;13.23;;
17207;SDS011;8720;48.488;9.202;2023-03-01T15:23:54;16.93;;;15.13;;
17207;SDS011;8720;48.488;9.202;2023-03-01T15:26:45;19.57;;;14.37;;
17207;SDS011;8720;48.488;9.202;2023-03-01T15:29:23;17.37;;;14.20;;
17207;SDS011;8720;48.488;9.202;2023-03-01T15:31:55;22.40;;;15.80;;
17207;SDS011;8720;48.488;9.202;2023-03-01T15:34:25;18.80;;;14.70;;